Time;durP1;ratioP1;P1;durP2;ratioP2;P2;SDS_P1;SDS_P2;PMS_P1;PMS_P2;Temp;Humidity;BMP_temperature;BMP_pressure;BME280_temperature;BME280_humidity;BME280_pressure;Samples;Min_cycle;Max_cycle;Signal;HPM_P1;HPM_P2
2022/08/08 00:00:13;;;;;;;27.77;15.25;;;;;;;21.93;100.00;99909.47;1576770;91;21075;-74
2022/08/08 00:03:18;;;;;;;34.13;17.40;;;;;;;21.91;100.00;99908.89;1532857;89;21073;-74
2022/08/08 00:06:01;;;;;;;51.92;30.92;;;;;;;21.90;100.00;99916.87;1520441;94;21067;-74
2022/08/08 00:08:56;;;;;;;108.00;58.10;;;;;;;21.91;100.00;99912.19;1522887;94;21653;-74
2022/08/08 00:11:47;;;;;;;227.28;124.72;;;;;;;21.87;100.00;99912.38;1515588;95;21113;-74
2022/08/08 00:14:37;;;;;;;134.78;80.10;;;;;;;21.83;100.00;99912.03;1474962;97;21556;-74
2022/08/08 00:17:18;;;;;;;123.67;75.40;;;;;;;21.80;100.00;99911.18;1404320;102;21146;-74
2022/08/08 00:19:57;;;;;;;149.75;91.37;;;;;;;21.79;100.00;99913.08;1410594;102;21679;-74
2022/08/08 00:22:27;;;;;;;112.32;66.95;;;;;;;21.80;100.00;99920.81;1410574;102;21184;-74
2022/08/08 00:25:01;;;;;;;131.25;77.35;;;;;;;21.78;100.00;99912.80;1410478;102;21127;-74
2022/08/08 00:27:27;;;;;;;161.20;94.62;;;;;;;21.76;100.00;99914.11;1404310;102;21221;-74
2022/08/08 00:30:09;;;;;;;218.22;123.60;;;;;;;21.73;100.00;99921.52;1405654;101;21083;-74
2022/08/08 00:32:47;;;;;;;142.95;80.85;;;;;;;21.70;100.00;99919.25;1424736;101;21182;-74
2022/08/08 00:35:26;;;;;;;122.33;65.52;;;;;;;21.67;100.00;99912.85;1424727;101;21143;-74
2022/08/08 00:38:07;;;;;;;165.88;95.32;;;;;;;21.64;100.00;99912.82;1373318;103;21154;-74
2022/08/08 00:40:39;;;;;;;194.13;114.22;;;;;;;21.61;100.00;99913.31;1377071;104;21123;-74
2022/08/08 00:43:46;;;;;;;249.88;137.18;;;;;;;21.59;100.00;99914.92;1394523;103;21131;-74
2022/08/08 00:46:49;;;;;;;170.32;97.37;;;;;;;21.56;100.00;99914.59;1396291;103;21178;-74
2022/08/08 00:49:38;;;;;;;129.87;72.53;;;;;;;21.52;100.00;99907.37;1396307;103;21124;-75
2022/08/08 00:52:36;;;;;;;78.28;44.05;;;;;;;21.53;100.00;99909.57;1396354;103;21583;-74
2022/08/08 00:55:27;;;;;;;69.87;38.83;;;;;;;21.51;100.00;99907.61;1396267;103;21120;-74
2022/08/08 00:58:23;;;;;;;172.60;93.47;;;;;;;21.49;100.00;99912.53;1402337;101;21146;-74
2022/08/08 01:01:19;;;;;;;118.80;60.45;;;;;;;21.45;100.00;99898.41;1463467;98;21244;-74
2022/08/08 01:04:25;;;;;;;133.67;87.00;;;;;;;21.39;100.00;99905.73;1462975;98;21097;-74
2022/08/08 01:07:20;;;;;;;112.92;78.07;;;;;;;21.36;100.00;99909.52;1406276;99;21167;-74
2022/08/08 01:10:21;;;;;;;126.07;87.17;;;;;;;21.34;100.00;99904.25;1434035;99;21092;-74
2022/08/08 01:13:14;;;;;;;144.22;102.07;;;;;;;21.32;100.00;99903.67;1422787;98;21219;-74
2022/08/08 01:16:37;;;;;;;120.47;84.05;;;;;;;21.28;100.00;99896.97;1474963;93;21577;-74
2022/08/08 01:19:45;;;;;;;90.42;62.70;;;;;;;21.20;100.00;99903.70;1538728;93;21048;-74
2022/08/08 01:22:29;;;;;;;51.20;35.48;;;;;;;21.10;100.00;99902.12;1538604;93;21118;-74
2022/08/08 01:25:21;;;;;;;37.25;22.22;;;;;;;21.00;100.00;99901.38;1538580;93;21121;-74
2022/08/08 01:28:30;;;;;;;24.18;14.28;;;;;;;20.92;100.00;99905.88;1554910;92;21108;-74
2022/08/08 01:31:20;;;;;;;19.37;10.18;;;;;;;20.82;100.00;99903.77;1554619;92;21085;-74
2022/08/08 01:34:16;;;;;;;21.75;11.90;;;;;;;20.72;100.00;99901.34;1575804;86;21033;-74
2022/08/08 01:37:01;;;;;;;43.73;29.35;;;;;;;20.66;100.00;99907.23;1680626;84;20995;-74
2022/08/08 01:39:50;;;;;;;57.65;37.85;;;;;;;20.59;100.00;99901.86;1711733;84;21003;-74
2022/08/08 01:42:49;;;;;;;60.58;36.40;;;;;;;20.56;100.00;99901.50;1661714;86;21116;-74
2022/08/08 01:46:03;;;;;;;62.65;39.55;;;;;;;20.52;100.00;99899.74;1659482;86;21481;-74
2022/08/08 01:49:23;;;;;;;75.55;48.78;;;;;;;20.54;100.00;99913.23;1658538;86;21617;-74
2022/08/08 01:52:28;;;;;;;102.90;61.37;;;;;;;20.55;100.00;99900.64;1637268;86;21508;-74
2022/08/08 01:55:33;;;;;;;124.02;75.72;;;;;;;20.57;100.00;99910.84;1632770;88;21006;-74
2022/08/08 01:58:39;;;;;;;195.68;106.58;;;;;;;20.54;100.00;99906.38;1625175;88;21063;-73
2022/08/08 02:01:16;;;;;;;424.23;228.27;;;;;;;20.49;100.00;99907.11;1615950;89;21044;-73
2022/08/08 02:04:21;;;;;;;525.30;285.57;;;;;;;20.45;100.00;99902.64;1583497;91;21032;-73
2022/08/08 02:07:11;;;;;;;660.60;377.35;;;;;;;20.45;100.00;99905.38;1583582;91;21132;-73
2022/08/08 02:10:16;;;;;;;611.45;353.55;;;;;;;20.45;100.00;99908.64;1583454;91;21143;-74
2022/08/08 02:12:52;;;;;;;;;;;;;;;20.43;100.00;99902.05;1582915;91;21108;-73
2022/08/08 02:15:45;;;;;;;1132.25;615.02;;;;;;;20.45;100.00;99907.27;1583572;91;20115;-74
2022/08/08 02:18:43;;;;;;;1163.50;654.45;;;;;;;20.44;100.00;99906.99;1583663;89;21554;-73
2022/08/08 02:24:24;;;;;;;623.65;346.77;;;;;;;20.47;100.00;99913.39;1641036;87;21176;-73
2022/08/08 02:27:02;;;;;;;447.23;230.45;;;;;;;20.49;100.00;99907.11;1639159;87;21054;-73
2022/08/08 02:29:58;;;;;;;408.60;201.15;;;;;;;20.51;100.00;99910.45;1629401;88;21078;-73
2022/08/08 02:32:58;;;;;;;377.20;180.67;;;;;;;20.47;100.00;99904.60;1621820;88;21531;-74
2022/08/08 02:35:36;;;;;;;239.93;114.37;;;;;;;20.45;100.00;99912.77;1619490;88;21074;-73
2022/08/08 02:38:28;;;;;;;214.08;104.45;;;;;;;20.43;100.00;99907.53;1594573;90;21057;-73
2022/08/08 02:41:17;;;;;;;167.28;81.30;;;;;;;20.47;100.00;99912.02;1595246;90;21058;-73
2022/08/08 02:44:36;;;;;;;108.32;54.83;;;;;;;20.47;100.00;99903.77;1540120;93;21043;-74
2022/08/08 02:47:44;;;;;;;288.02;136.60;;;;;;;20.48;100.00;99910.37;1523627;94;21107;-73
2022/08/08 02:50:59;;;;;;;453.88;228.47;;;;;;;20.48;100.00;99915.04;1540267;93;21117;-73
2022/08/08 02:54:06;;;;;;;346.52;183.22;;;;;;;20.45;100.00;99909.50;1489401;96;21584;-74
2022/08/08 02:56:44;;;;;;;286.02;155.52;;;;;;;20.43;100.00;99909.42;1491134;96;21103;-74
2022/08/08 03:00:09;;;;;;;243.10;135.00;;;;;;;20.45;100.00;99919.11;1489747;96;21107;-73
2022/08/08 03:03:29;;;;;;;194.17;113.25;;;;;;;20.48;100.00;99917.78;1503921;94;21114;-74
2022/08/08 03:06:32;;;;;;;171.43;98.78;;;;;;;20.54;100.00;99920.97;1503953;93;21095;-75
2022/08/08 03:09:54;;;;;;;123.67;71.90;;;;;;;20.57;100.00;99922.38;1444240;99;21097;-74
2022/08/08 03:13:10;;;;;;;51.70;31.70;;;;;;;20.59;100.00;99917.48;1465017;98;21148;-74
2022/08/08 03:15:57;;;;;;;38.40;22.82;;;;;;;20.69;100.00;99926.53;1470207;96;21136;-74
2022/08/08 03:18:30;;;;;;;43.28;24.15;;;;;;;20.76;100.00;99934.94;1444634;99;21159;-74
2022/08/08 03:20:56;;;;;;;31.05;13.22;;;;;;;20.83;100.00;99938.94;1445122;99;21139;-74
2022/08/08 03:23:26;;;;;;;96.40;48.80;;;;;;;20.89;100.00;99942.08;1447249;99;21110;-74
2022/08/08 03:25:55;;;;;;;147.47;75.20;;;;;;;20.97;100.00;99944.47;1448166;99;21170;-74
2022/08/08 03:28:48;;;;;;;95.90;51.25;;;;;;;21.04;100.00;99949.84;1440663;97;21111;-74
2022/08/08 03:34:06;;;;;;;83.78;42.95;;;;;;;21.16;100.00;99958.03;1449141;99;21122;-75
2022/08/08 03:36:42;;;;;;;84.22;43.98;;;;;;;21.19;100.00;99969.38;1453921;98;21098;-74
2022/08/08 03:39:13;;;;;;;90.35;51.73;;;;;;;21.23;100.00;99965.09;1469265;98;21184;-74
2022/08/08 03:41:40;;;;;;;65.60;36.38;;;;;;;21.27;100.00;99964.61;1519107;94;21067;-74
2022/08/08 03:44:07;;;;;;;27.35;13.75;;;;;;;21.28;100.00;99975.89;1527824;93;21048;-74
2022/08/08 03:46:48;;;;;;;78.83;43.05;;;;;;;21.27;100.00;99981.11;1549982;93;21079;-74
2022/08/08 03:49:25;;;;;;;87.55;44.27;;;;;;;21.23;100.00;99973.34;1539960;93;21052;-74
2022/08/08 03:51:53;;;;;;;82.72;44.27;;;;;;;21.22;100.00;99970.83;1551938;91;21066;-74
2022/08/08 03:54:23;;;;;;;55.90;30.27;;;;;;;21.23;100.00;99971.96;1590897;90;21129;-74
2022/08/08 03:56:50;;;;;;;88.25;45.28;;;;;;;21.26;100.00;99970.63;1644103;87;21031;-74
2022/08/08 03:59:16;;;;;;;83.75;43.23;;;;;;;21.25;100.00;99968.97;1673211;86;20989;-74
2022/08/08 04:01:43;;;;;;;63.90;33.18;;;;;;;21.25;100.00;99974.47;1690133;85;20999;-74
2022/08/08 04:04:10;;;;;;;44.15;24.20;;;;;;;21.28;100.00;99982.21;1690075;85;20963;-74
2022/08/08 04:06:41;;;;;;;47.88;25.57;;;;;;;21.36;100.00;99981.02;1690064;85;21006;-74
2022/08/08 04:09:08;;;;;;;43.28;23.45;;;;;;;21.46;100.00;99991.41;1689895;85;21061;-75
2022/08/08 04:11:40;;;;;;;37.93;18.85;;;;;;;21.54;100.00;99989.10;1690068;85;20999;-75
2022/08/08 04:14:09;;;;;;;68.28;38.73;;;;;;;21.59;100.00;99987.00;1690268;85;21063;-74
2022/08/08 04:16:37;;;;;;;324.62;157.62;;;;;;;21.62;100.00;99990.65;1689922;85;21010;-75
2022/08/08 04:19:03;;;;;;;196.50;102.05;;;;;;;21.65;100.00;99996.19;1690117;85;21097;-74
2022/08/08 04:21:32;;;;;;;142.20;78.30;;;;;;;21.70;100.00;100001.25;1689940;85;21458;-75
2022/08/08 04:24:00;;;;;;;157.43;85.03;;;;;;;21.79;100.00;100000.31;1689694;85;21051;-75
2022/08/08 04:26:27;;;;;;;79.05;43.28;;;;;;;21.88;100.00;100007.64;1729211;81;21030;-74
2022/08/08 04:28:53;;;;;;;70.87;39.88;;;;;;;21.93;100.00;100007.19;1787207;80;21540;-74
2022/08/08 04:31:20;;;;;;;166.73;89.95;;;;;;;21.99;100.00;100014.47;1792180;80;21058;-76
2022/08/08 04:33:47;;;;;;;97.57;53.08;;;;;;;22.06;100.00;100015.70;1792107;80;21012;-74
2022/08/08 04:36:14;;;;;;;61.55;33.67;;;;;;;22.15;100.00;100013.34;1789438;80;21026;-75
2022/08/08 04:38:41;;;;;;;33.70;17.30;;;;;;;22.24;100.00;100015.16;1766615;81;21028;-75
2022/08/08 04:41:08;;;;;;;20.80;9.00;;;;;;;22.31;100.00;100021.37;1732571;83;20998;-74
2022/08/08 04:43:35;;;;;;;17.62;7.60;;;;;;;22.40;100.00;100021.79;1719223;83;21096;-74
2022/08/08 04:46:01;;;;;;;16.57;6.47;;;;;;;22.49;100.00;100021.14;1766381;81;21128;-75
2022/08/08 04:48:29;;;;;;;23.73;11.78;;;;;;;22.58;100.00;100025.69;1766317;81;21043;-75
2022/08/08 04:50:57;;;;;;;288.20;149.27;;;;;;;22.69;100.00;100023.37;1766452;81;21039;-75
2022/08/08 04:53:26;;;;;;;330.10;150.70;;;;;;;22.82;100.00;100024.13;1765798;81;21118;-74
2022/08/08 04:55:53;;;;;;;141.07;70.92;;;;;;;22.97;100.00;100033.19;1732490;83;21472;-74
2022/08/08 04:58:19;;;;;;;317.27;149.20;;;;;;;23.11;100.00;100031.20;1720053;83;21030;-74
2022/08/08 05:00:47;;;;;;;59.18;29.98;;;;;;;23.27;100.00;100039.14;1791741;80;21030;-75
2022/08/08 05:03:13;;;;;;;30.15;14.18;;;;;;;23.44;100.00;100052.05;1792257;80;21012;-75
2022/08/08 05:05:40;;;;;;;32.73;24.80;;;;;;;23.61;100.00;100047.86;1791225;80;21026;-75
2022/08/08 05:08:09;;;;;;;86.02;42.27;;;;;;;23.81;100.00;100047.28;1790882;80;21023;-74
2022/08/08 05:10:38;;;;;;;125.62;72.30;;;;;;;24.01;100.00;100043.38;1792130;80;21049;-76
2022/08/08 05:13:06;;;;;;;77.05;37.95;;;;;;;24.22;100.00;100062.38;1790775;80;21031;-76
2022/08/08 05:15:34;;;;;;;125.15;66.80;;;;;;;24.43;100.00;100060.65;1791964;80;21140;-76
2022/08/08 05:18:02;;;;;;;130.45;75.40;;;;;;;24.62;100.00;100069.39;1791064;80;21540;-76
2022/08/08 05:20:28;;;;;;;113.15;78.72;;;;;;;24.79;100.00;100078.11;1791307;80;21103;-75
2022/08/08 05:22:55;;;;;;;36.60;18.30;;;;;;;24.93;100.00;100084.86;1790708;80;20963;-76
2022/08/08 05:25:24;;;;;;;53.68;29.52;;;;;;;25.10;100.00;100089.39;1789698;80;21559;-78
2022/08/08 05:27:52;;;;;;;228.90;168.55;;;;;;;25.25;100.00;100085.91;1786414;80;21046;-76
2022/08/08 05:30:19;;;;;;;98.22;60.63;;;;;;;25.41;100.00;100090.45;1790529;80;21042;-77
2022/08/08 05:32:48;;;;;;;27.00;15.05;;;;;;;25.57;100.00;100094.13;1795243;80;21034;-74
2022/08/08 05:35:16;;;;;;;25.75;14.33;;;;;;;25.68;100.00;100101.37;1795477;80;21003;-75
2022/08/08 05:37:51;;;;;;;69.17;40.50;;;;;;;25.76;100.00;100106.40;1804993;79;21484;-77
2022/08/08 05:40:21;;;;;;;58.98;45.78;;;;;;;25.88;100.00;100105.33;1808704;79;21501;-74
2022/08/08 05:42:53;;;;;;;42.65;29.52;;;;;;;26.01;100.00;100106.25;1808953;79;20995;-75
2022/08/08 05:45:20;;;;;;;21.87;9.70;;;;;;;26.14;100.00;100103.50;1808657;79;21058;-74
2022/08/08 05:47:47;;;;;;;36.73;20.97;;;;;;;26.30;100.00;100114.90;1808919;79;21010;-75
2022/08/08 05:50:17;;;;;;;38.85;24.65;;;;;;;26.47;100.00;100104.11;1808656;79;21454;-74
2022/08/08 05:52:44;;;;;;;35.52;21.90;;;;;;;26.61;100.00;100109.95;1808920;79;21022;-76
2022/08/08 05:55:11;;;;;;;32.08;16.90;;;;;;;26.75;100.00;100117.20;1808857;79;21019;-74
2022/08/08 05:57:41;;;;;;;32.20;23.38;;;;;;;26.92;100.00;100116.94;1800748;79;21017;-73
2022/08/08 06:00:11;;;;;;;16.55;8.48;;;;;;;27.09;100.00;100112.76;1780624;80;21040;-73
2022/08/08 06:05:42;;;;;;;29.65;16.45;;;;;;;27.49;100.00;100119.92;1780373;81;21071;-79
2022/08/08 06:08:09;;;;;;;43.68;27.05;;;;;;;27.73;100.00;100120.66;1780872;80;21015;-78
2022/08/08 06:10:36;;;;;;;70.35;38.90;;;;;;;27.93;100.00;100122.58;1781194;80;21064;-75
2022/08/08 06:13:03;;;;;;;271.87;140.62;;;;;;;28.13;100.00;100121.06;1779828;81;21055;-75
2022/08/08 06:15:31;;;;;;;92.17;50.95;;;;;;;28.29;100.00;100126.55;1781688;80;21088;-76
2022/08/08 06:17:59;;;;;;;95.47;42.08;;;;;;;28.42;100.00;100125.92;1779781;81;20996;-75
2022/08/08 06:20:25;;;;;;;121.15;50.35;;;;;;;28.56;100.00;100131.67;1780239;80;21061;-76
2022/08/08 06:22:52;;;;;;;145.38;56.25;;;;;;;28.69;100.00;100131.61;1779657;81;20985;-76
2022/08/08 06:25:20;;;;;;;262.93;99.03;;;;;;;28.86;100.00;100138.98;1780199;81;21008;-76
2022/08/08 06:27:55;;;;;;;93.50;39.60;;;;;;;29.07;100.00;100142.39;1780333;81;21467;-73
2022/08/08 06:30:22;;;;;;;28.57;14.50;;;;;;;29.29;100.00;100136.95;1756493;81;21084;-73
2022/08/08 06:32:54;;;;;;;169.57;77.78;;;;;;;29.51;100.00;100137.83;1780422;81;21363;-71
2022/08/08 06:35:23;;;;;;;678.90;276.25;;;;;;;29.70;100.00;100135.11;1780009;81;21380;-72
2022/08/08 06:37:58;;;;;;;388.02;150.47;;;;;;;29.89;100.00;100130.45;1803721;79;21307;-73
2022/08/08 06:40:32;;;;;;;76.85;35.38;;;;;;;30.05;100.00;100135.27;1811302;79;21473;-72
2022/08/08 06:43:04;;;;;;;54.35;23.38;;;;;;;30.15;100.00;100131.48;1811425;79;21042;-71
2022/08/08 06:45:36;;;;;;;162.92;80.83;;;;;;;30.18;100.00;100134.26;1807380;79;21481;-71
2022/08/08 06:48:03;;;;;;;53.73;26.93;;;;;;;30.18;100.00;100137.87;1811633;79;21038;-72
2022/08/08 06:50:32;;;;;;;25.60;12.25;;;;;;;30.26;100.00;100124.66;1811799;79;21031;-71
2022/08/08 06:53:01;;;;;;;20.25;7.28;;;;;;;30.41;100.00;100122.23;1811633;79;21031;-72
2022/08/08 06:55:29;;;;;;;28.80;11.78;;;;;;;30.63;100.00;100130.00;1811503;79;21023;-71
2022/08/08 06:57:59;;;;;;;34.55;18.12;;;;;;;30.84;100.00;100129.64;1754802;81;21472;-71
2022/08/08 07:00:28;;;;;;;42.55;21.20;;;;;;;31.06;100.00;100123.45;1777130;81;21070;-71
2022/08/08 07:02:57;;;;;;;58.60;31.05;;;;;;;31.27;100.00;100125.31;1777425;81;21066;-69
2022/08/08 07:05:24;;;;;;;34.13;18.12;;;;;;;31.55;100.00;100126.75;1777301;81;20971;-71
2022/08/08 07:08:10;;;;;;;25.35;10.85;;;;;;;31.81;100.00;100124.27;1777271;81;21010;-71
2022/08/08 07:10:41;;;;;;;25.08;11.80;;;;;;;32.09;100.00;100123.70;1776897;81;21026;-71
2022/08/08 07:13:09;;;;;;;21.27;8.50;;;;;;;32.32;100.00;100127.38;1776836;81;21062;-71
2022/08/08 07:15:58;;;;;;;24.32;10.10;;;;;;;32.54;100.00;100127.15;1726132;83;21058;-69
2022/08/08 07:18:42;;;;;;;21.95;13.48;;;;;;;32.81;100.00;100126.25;1725418;82;21034;-71
2022/08/08 07:21:12;;;;;;;18.65;7.35;;;;;;;33.12;100.00;100129.66;1627420;88;21081;-71
2022/08/08 07:23:58;;;;;;;21.25;10.18;;;;;;;33.37;100.00;100142.77;1627930;88;21078;-70
2022/08/08 07:26:26;;;;;;;19.25;10.80;;;;;;;33.46;100.00;100129.03;1627191;87;21050;-72
2022/08/08 07:28:53;;;;;;;33.45;20.52;;;;;;;33.69;100.00;100135.18;1624477;88;21082;-74
2022/08/08 07:31:21;;;;;;;384.45;347.40;;;;;;;33.69;100.00;100136.59;1618693;89;21047;-71
2022/08/08 07:33:48;;;;;;;108.50;97.00;;;;;;;33.64;100.00;100136.95;1618801;89;21041;-73
2022/08/08 07:36:14;;;;;;;115.72;80.95;;;;;;;33.77;100.00;100142.81;1619447;88;21030;-73
2022/08/08 07:38:41;;;;;;;38.28;22.87;;;;;;;33.96;100.00;100134.95;1623580;88;21595;-73
2022/08/08 07:41:08;;;;;;;21.82;11.85;;;;;;;34.21;100.00;100140.38;1623917;88;21110;-72
2022/08/08 07:43:36;;;;;;;21.07;11.75;;;;;;;34.27;100.00;100142.45;1623915;88;21026;-75
2022/08/08 07:46:02;;;;;;;18.20;8.95;;;;;;;34.36;100.00;100138.25;1602256;88;21098;-74
2022/08/08 07:48:29;;;;;;;20.80;13.18;;;;;;;34.55;100.00;100139.34;1623511;88;21430;-71
2022/08/08 07:50:59;;;;;;;21.73;10.63;;;;;;;34.71;100.00;100146.13;1650148;85;20994;-74
2022/08/08 07:53:38;;;;;;;18.73;8.07;;;;;;;34.79;100.00;100141.09;1677524;85;21513;-75
2022/08/08 07:56:05;;;;;;;21.57;10.32;;;;;;;34.83;100.00;100144.06;1677341;85;21042;-75
2022/08/08 07:58:41;;;;;;;57.10;38.10;;;;;;;34.92;100.00;100144.88;1725471;80;21050;-74
2022/08/08 08:01:14;;;;;;;32.38;19.52;;;;;;;35.07;100.00;100144.09;1773047;80;20990;-73
2022/08/08 08:04:03;;;;;;;27.42;12.45;;;;;;;35.09;92.29;100145.98;1773441;80;21361;-73
2022/08/08 08:09:20;;;;;;;23.40;11.85;;;;;;;34.77;90.83;100149.59;1627308;88;21085;-75
2022/08/08 08:11:49;;;;;;;12.68;5.72;;;;;;;34.69;90.74;100152.63;1584783;90;21464;-75
2022/08/08 08:14:21;;;;;;;13.93;6.22;;;;;;;34.59;88.73;100156.58;1587003;90;21601;-74
2022/08/08 08:16:48;;;;;;;33.78;15.32;;;;;;;34.52;95.14;100151.22;1582122;90;21702;-75
2022/08/08 08:19:16;;;;;;;19.55;8.03;;;;;;;34.70;93.88;100154.88;1566205;91;21473;-75
2022/08/08 08:21:48;;;;;;;12.10;5.80;;;;;;;34.90;99.59;100150.56;1571552;91;21144;-74
2022/08/08 08:24:16;;;;;;;14.70;7.80;;;;;;;35.15;95.52;100146.08;1568807;91;21023;-73
2022/08/08 08:26:43;;;;;;;14.07;6.87;;;;;;;35.45;95.97;100148.97;1571580;90;21109;-73
2022/08/08 08:29:10;;;;;;;24.27;11.60;;;;;;;35.61;91.76;100155.71;1571439;90;21600;-73
2022/08/08 08:31:38;;;;;;;20.27;8.20;;;;;;;35.66;84.94;100151.31;1570393;90;21115;-74
2022/08/08 08:34:06;;;;;;;18.23;7.00;;;;;;;35.64;83.85;100149.39;1568492;91;21099;-73
2022/08/08 08:36:34;;;;;;;17.95;7.22;;;;;;;35.64;85.76;100152.20;1568064;91;21082;-72
2022/08/08 08:39:01;;;;;;;51.37;28.75;;;;;;;35.82;88.93;100150.75;1567921;91;21163;-80
2022/08/08 08:41:30;;;;;;;51.00;31.40;;;;;;;35.96;80.05;100153.33;1625608;87;21070;-78
2022/08/08 08:43:58;;;;;;;35.10;18.90;;;;;;;35.89;79.94;100151.88;1622992;87;21041;-79
2022/08/08 08:46:24;;;;;;;21.60;10.32;;;;;;;35.93;82.30;100149.22;1646228;87;21022;-78
2022/08/08 08:48:51;;;;;;;14.78;6.80;;;;;;;35.93;83.01;100145.81;1657699;85;21134;-77
2022/08/08 08:51:18;;;;;;;22.52;6.90;;;;;;;35.95;78.76;100150.25;1671589;86;21034;-77
2022/08/08 08:53:55;;;;;;;11.50;5.50;;;;;;;35.98;83.33;100145.36;1671315;86;21022;-77
2022/08/08 08:56:25;;;;;;;30.57;16.20;;;;;;;36.16;88.11;100145.52;1641412;87;21131;-78
2022/08/08 08:58:56;;;;;;;27.58;14.85;;;;;;;36.45;82.98;100145.24;1639259;87;21072;-78
2022/08/08 09:01:27;;;;;;;45.52;31.33;;;;;;;36.43;80.00;100147.59;1642820;86;21598;-79
2022/08/08 09:03:57;;;;;;;27.98;15.25;;;;;;;36.53;84.30;100141.55;1621247;87;21060;-79
2022/08/08 09:06:31;;;;;;;30.80;18.45;;;;;;;36.58;77.47;100144.72;1671884;85;21578;-80
2022/08/08 09:09:05;;;;;;;186.70;78.15;;;;;;;36.60;83.71;100143.22;1682883;85;21144;-81
2022/08/08 09:11:34;;;;;;;88.37;41.68;;;;;;;36.63;74.24;100142.52;1650955;87;21132;-79
2022/08/08 09:14:04;;;;;;;39.80;21.17;;;;;;;36.53;78.31;100143.52;1650944;86;21084;-79
2022/08/08 09:16:34;;;;;;;74.70;47.88;;;;;;;36.58;78.76;100141.31;1651310;87;21124;-82
2022/08/08 09:19:01;;;;;;;68.12;43.50;;;;;;;36.57;69.95;100144.50;1651036;87;21108;-79
2022/08/08 09:21:28;;;;;;;22.85;11.75;;;;;;;36.45;75.98;100142.43;1681628;84;20991;-80
2022/08/08 09:23:55;;;;;;;24.23;9.85;;;;;;;36.57;82.21;100145.31;1681936;84;21083;-80
2022/08/08 09:26:40;;;;;;;149.97;74.58;;;;;;;36.79;74.56;100146.14;1675007;84;21051;-80
2022/08/08 09:29:08;;;;;;;283.50;110.97;;;;;;;36.85;71.50;100147.00;1674949;86;21051;-82
2022/08/08 09:32:03;;;;;;;104.85;52.35;;;;;;;36.74;73.46;100144.94;1674338;86;21106;-82
2022/08/08 09:34:34;;;;;;;330.73;183.78;;;;;;;36.68;76.77;100142.92;1668696;86;21093;-81
2022/08/08 09:37:06;;;;;;;241.55;114.12;;;;;;;36.80;82.60;100144.98;1679982;84;21035;-81
2022/08/08 09:40:01;;;;;;;234.43;146.05;;;;;;;36.81;78.13;100147.45;1680628;84;21007;-81
2022/08/08 09:42:33;;;;;;;182.27;124.40;;;;;;;36.80;80.92;100147.80;1675154;85;21137;-81
2022/08/08 09:45:07;;;;;;;52.43;34.43;;;;;;;36.82;78.20;100151.91;1677187;85;21104;-80
2022/08/08 09:47:39;;;;;;;34.10;19.15;;;;;;;36.85;79.96;100140.55;1677801;85;21603;-82
2022/08/08 09:50:13;;;;;;;24.20;12.20;;;;;;;36.89;81.44;100147.12;1676848;84;21164;-81
2022/08/08 09:52:43;;;;;;;34.70;15.68;;;;;;;36.95;85.23;100145.72;1627959;87;21704;-80
2022/08/08 09:55:10;;;;;;;21.50;9.75;;;;;;;37.00;80.76;100142.69;1646265;87;21051;-81
2022/08/08 09:57:39;;;;;;;19.32;9.05;;;;;;;37.00;78.93;100146.10;1656154;85;21010;-79
2022/08/08 10:00:10;;;;;;;62.83;42.88;;;;;;;37.04;80.76;100143.66;1651564;85;21568;-81
2022/08/08 10:02:42;;;;;;;46.02;27.45;;;;;;;37.09;77.51;100144.61;1628110;87;21079;-80
2022/08/08 10:05:16;;;;;;;36.10;20.27;;;;;;;37.05;71.34;100142.48;1623285;87;21036;-78
2022/08/08 10:08:05;;;;;;;28.50;13.45;;;;;;;37.00;66.11;100139.88;1607239;89;21225;-80
2022/08/08 10:10:37;;;;;;;27.40;12.70;;;;;;;36.95;66.29;100144.91;1571080;91;21148;-84
2022/08/08 10:13:20;;;;;;;155.27;92.15;;;;;;;36.99;62.60;100144.45;1571108;91;21033;-79
2022/08/08 10:15:49;;;;;;;44.83;26.25;;;;;;;37.04;63.01;100141.41;1596336;90;21097;-79
2022/08/08 10:18:32;;;;;;;35.85;18.25;;;;;;;37.09;55.93;100137.56;1598570;90;21072;-79
2022/08/08 10:21:11;;;;;;;21.20;7.78;;;;;;;36.98;53.94;100139.41;1598766;90;21125;-78
2022/08/08 10:23:47;;;;;;;22.17;9.30;;;;;;;37.04;54.72;100139.44;1549490;92;21148;-79
2022/08/08 10:26:24;;;;;;;32.90;17.87;;;;;;;37.04;50.29;100135.21;1549312;92;21150;-78
2022/08/08 10:29:06;;;;;;;17.85;8.70;;;;;;;37.03;41.09;100133.55;1549295;92;21207;-78
2022/08/08 10:34:22;;;;;;;16.00;7.22;;;;;;;36.84;44.40;100136.88;1550557;92;21111;-80
2022/08/08 10:36:49;;;;;;;104.80;72.40;;;;;;;36.89;44.76;100133.63;1556243;91;21180;-77
2022/08/08 10:39:27;;;;;;;78.97;49.85;;;;;;;36.78;39.77;100134.63;1568604;90;21062;-79
2022/08/08 10:42:01;;;;;;;92.90;58.05;;;;;;;36.60;41.75;100128.30;1570622;90;21047;-81
2022/08/08 10:44:35;;;;;;;42.90;20.12;;;;;;;36.56;44.81;100134.39;1586365;90;21420;-78
2022/08/08 10:47:14;;;;;;;16.82;7.53;;;;;;;36.59;42.58;100129.48;1584597;90;21660;-83
2022/08/08 10:49:44;;;;;;;31.33;16.73;;;;;;;36.59;40.67;100132.30;1623166;86;21045;-80
2022/08/08 10:52:10;;;;;;;15.38;7.87;;;;;;;36.64;40.90;100129.27;1647690;87;21028;-79
2022/08/08 10:54:38;;;;;;;70.03;43.63;;;;;;;36.74;42.64;100126.04;1640480;87;21049;-80
2022/08/08 10:57:07;;;;;;;19.17;9.75;;;;;;;36.92;43.02;100123.91;1650122;87;21028;-79
2022/08/08 10:59:33;;;;;;;54.48;32.40;;;;;;;36.98;40.74;100128.13;1644657;87;21013;-79
2022/08/08 11:02:00;;;;;;;28.40;16.17;;;;;;;36.99;40.80;100119.93;1650959;87;21460;-80
2022/08/08 11:04:26;;;;;;;76.22;45.03;;;;;;;36.93;41.67;100120.48;1648501;87;21069;-79
2022/08/08 11:06:59;;;;;;;63.95;39.23;;;;;;;36.96;44.28;100118.39;1702048;84;21045;-79
2022/08/08 11:09:27;;;;;;;63.87;39.00;;;;;;;37.09;41.74;100121.47;1698718;84;21068;-76
2022/08/08 11:11:53;;;;;;;19.55;8.90;;;;;;;37.21;44.35;100122.13;1705757;84;21017;-76
2022/08/08 11:14:20;;;;;;;12.60;5.50;;;;;;;37.28;41.60;100122.37;1702497;83;21081;-77
2022/08/08 11:16:47;;;;;;;19.15;8.53;;;;;;;37.32;43.04;100117.66;1689475;84;20991;-76
2022/08/08 11:19:15;;;;;;;44.20;24.05;;;;;;;37.47;42.27;100119.00;1681620;84;21084;-79
2022/08/08 11:21:45;;;;;;;132.03;82.85;;;;;;;37.66;41.85;100119.02;1705369;84;21033;-80
2022/08/08 11:24:12;;;;;;;90.42;53.68;;;;;;;37.73;39.54;100114.42;1704970;84;21041;-81
2022/08/08 11:26:42;;;;;;;41.30;23.52;;;;;;;37.65;41.67;100116.80;1748117;79;21495;-81
2022/08/08 11:29:09;;;;;;;18.10;7.20;;;;;;;37.69;42.97;100119.14;1813484;79;21051;-78
2022/08/08 11:31:43;;;;;;;58.90;36.58;;;;;;;37.77;42.31;100119.62;1813479;79;21103;-81
2022/08/08 11:34:09;;;;;;;30.35;15.68;;;;;;;37.75;40.94;100119.16;1816281;79;21020;-81
2022/08/08 11:36:37;;;;;;;19.87;9.20;;;;;;;37.62;36.68;100116.87;1817145;79;20987;-78
2022/08/08 11:39:06;;;;;;;13.43;7.05;;;;;;;37.50;36.90;100119.68;1816865;79;21480;-77
2022/08/08 11:41:35;;;;;;;9.43;5.20;;;;;;;37.59;38.85;100123.80;1816519;79;21062;-80
2022/08/08 11:46:34;;;;;;;7.55;3.47;;;;;;;37.87;44.21;100119.71;1675821;84;21072;-82
2022/08/08 11:49:03;;;;;;;9.05;3.47;;;;;;;38.04;40.19;100120.66;1675170;86;21127;-81
2022/08/08 11:51:30;;;;;;;31.82;14.98;;;;;;;38.09;38.29;100116.15;1671409;86;21577;-81
2022/08/08 11:53:57;;;;;;;18.55;9.08;;;;;;;38.10;39.50;100107.93;1675972;86;20992;-81
2022/08/08 11:56:24;;;;;;;22.37;9.60;;;;;;;38.11;40.04;100106.80;1647262;86;21079;-81
2022/08/08 11:58:52;;;;;;;74.25;47.20;;;;;;;38.17;41.16;100106.77;1662609;86;21078;-83
2022/08/08 12:01:31;;;;;;;20.25;11.00;;;;;;;38.17;38.69;100107.58;1659621;86;21094;-85